createdAt,value
2018-07-27T00:01:22.828Z,5.83
2018-07-27T00:03:51.767Z,8.43
2018-07-27T00:06:20.639Z,6.70
2018-07-27T00:08:49.533Z,7.83
2018-07-27T00:11:18.369Z,6.40
2018-07-27T00:13:47.159Z,7.80
2018-07-27T00:16:16.130Z,7.63
2018-07-27T00:18:45.163Z,6.13
2018-07-27T00:21:14.151Z,8.10
2018-07-27T00:23:43.008Z,5.90
2018-07-27T00:26:11.937Z,5.47
2018-07-27T00:28:40.859Z,5.20
2018-07-27T00:31:09.671Z,5.50
2018-07-27T00:33:39.621Z,4.60
2018-07-27T00:36:08.471Z,8.43
2018-07-27T00:38:37.348Z,5.30
2018-07-27T00:41:06.581Z,5.70
2018-07-27T00:43:35.442Z,5.57
2018-07-27T00:46:04.557Z,5.37
2018-07-27T00:48:34.204Z,6.77
2018-07-27T00:51:02.980Z,5.60
2018-07-27T00:53:31.866Z,5.97
2018-07-27T00:56:00.900Z,6.33
2018-07-27T00:58:29.934Z,6.30
2018-07-27T01:00:58.824Z,7.10
2018-07-27T01:03:27.672Z,5.17
2018-07-27T01:05:56.582Z,7.20
2018-07-27T01:08:25.570Z,7.60
2018-07-27T01:10:54.467Z,6.23
2018-07-27T01:13:23.381Z,6.17
2018-07-27T01:15:52.179Z,5.53
2018-07-27T01:18:21.047Z,5.70
2018-07-27T01:20:49.893Z,6.00
2018-07-27T01:23:18.765Z,6.08
2018-07-27T01:25:47.627Z,5.83
2018-07-27T01:28:16.477Z,6.90
2018-07-27T01:30:45.400Z,7.97
2018-07-27T01:33:14.643Z,6.20
2018-07-27T01:35:43.345Z,6.50
2018-07-27T01:38:12.420Z,8.00
2018-07-27T01:40:41.749Z,7.57
2018-07-27T01:43:11.277Z,6.65
2018-07-27T01:45:40.143Z,7.07
2018-07-27T01:48:08.967Z,6.10
2018-07-27T01:50:37.906Z,8.63
2018-07-27T01:53:06.786Z,5.87
2018-07-27T01:55:35.689Z,4.97
2018-07-27T01:58:04.572Z,6.00
2018-07-27T02:00:33.286Z,4.93
2018-07-27T02:03:02.100Z,5.83
2018-07-27T02:05:31.153Z,5.33
2018-07-27T02:07:59.916Z,5.00
2018-07-27T02:10:28.815Z,5.13
2018-07-27T02:12:57.721Z,5.93
2018-07-27T02:15:26.588Z,4.97
2018-07-27T02:17:55.427Z,5.57
2018-07-27T02:20:28.215Z,5.40
2018-07-27T02:22:57.114Z,4.97
2018-07-27T02:25:25.915Z,5.27
2018-07-27T02:27:54.841Z,6.10
2018-07-27T02:30:23.729Z,6.10
2018-07-27T02:32:52.635Z,6.27
2018-07-27T02:35:21.543Z,6.27
2018-07-27T02:37:50.705Z,6.97
2018-07-27T02:40:19.622Z,7.57
2018-07-27T02:42:48.568Z,5.60
2018-07-27T02:45:17.352Z,4.70
2018-07-27T02:47:48.972Z,5.60
2018-07-27T02:50:19.011Z,5.57
2018-07-27T02:52:48.137Z,5.70
2018-07-27T02:55:17.415Z,5.67
2018-07-27T02:57:46.635Z,5.53
2018-07-27T03:00:15.786Z,4.87
2018-07-27T03:02:44.673Z,6.60
2018-07-27T03:05:13.545Z,8.57
2018-07-27T03:07:41.967Z,5.93
2018-07-27T03:10:10.857Z,5.53
2018-07-27T03:12:39.862Z,5.70
2018-07-27T03:15:09.039Z,5.80
2018-07-27T03:17:37.919Z,5.77
2018-07-27T03:20:07.011Z,5.40
2018-07-27T03:22:35.933Z,9.07
2018-07-27T03:25:05.224Z,7.37
2018-07-27T03:27:34.103Z,6.73
2018-07-27T03:30:03.292Z,7.97
2018-07-27T03:32:32.471Z,7.13
2018-07-27T03:35:01.393Z,5.97
2018-07-27T03:37:30.444Z,7.40
2018-07-27T03:39:59.300Z,6.57
2018-07-27T03:42:30.486Z,6.00
2018-07-27T03:44:59.251Z,6.20
2018-07-27T03:47:28.168Z,6.27
2018-07-27T03:49:57.060Z,7.27
2018-07-27T03:52:25.955Z,7.53
2018-07-27T03:54:54.817Z,5.90
2018-07-27T03:57:23.759Z,6.33
2018-07-27T03:59:52.629Z,7.03
2018-07-27T04:02:21.821Z,6.23
2018-07-27T04:04:50.678Z,6.20
2018-07-27T04:07:19.672Z,5.80
2018-07-27T04:09:48.500Z,5.57
2018-07-27T04:12:17.600Z,6.67
2018-07-27T04:14:46.396Z,7.17
2018-07-27T04:17:15.391Z,6.30
2018-07-27T04:19:44.886Z,7.07
2018-07-27T04:22:13.902Z,7.33
2018-07-27T04:24:43.056Z,8.30
2018-07-27T04:27:12.008Z,8.07
2018-07-27T04:29:40.886Z,9.70
2018-07-27T04:32:09.816Z,8.00
2018-07-27T04:34:39.000Z,7.80
2018-07-27T04:37:07.972Z,8.07
2018-07-27T04:39:36.984Z,8.80
2018-07-27T04:42:06.198Z,8.33
2018-07-27T04:44:35.180Z,9.87
2018-07-27T04:47:04.296Z,8.70
2018-07-27T04:49:33.149Z,9.20
2018-07-27T04:52:02.037Z,8.20
2018-07-27T04:54:30.879Z,8.40
2018-07-27T04:56:59.882Z,7.83
2018-07-27T04:59:28.732Z,8.73
2018-07-27T05:01:57.578Z,8.73
2018-07-27T05:04:26.437Z,10.97
2018-07-27T05:06:55.352Z,8.70
2018-07-27T05:09:24.238Z,9.40
2018-07-27T05:11:52.991Z,8.77
2018-07-27T05:14:21.831Z,9.80
2018-07-27T05:16:50.567Z,9.63
2018-07-27T05:19:19.487Z,8.73
2018-07-27T05:21:47.949Z,8.37
2018-07-27T05:24:16.829Z,9.37
2018-07-27T05:26:45.765Z,8.58
2018-07-27T05:29:14.575Z,7.50
2018-07-27T05:31:43.473Z,8.65
2018-07-27T05:34:43.021Z,7.57
2018-07-27T05:37:11.987Z,9.63
2018-07-27T05:39:40.792Z,7.47
2018-07-27T05:45:33.000Z,7.25
2018-07-27T05:48:01.853Z,7.72
2018-07-27T05:50:30.733Z,7.85
2018-07-27T05:52:59.706Z,10.15
2018-07-27T05:55:28.606Z,7.47
2018-07-27T05:57:57.506Z,7.37
2018-07-27T06:00:26.600Z,8.65
2018-07-27T06:02:55.502Z,9.38
2018-07-27T06:05:24.390Z,7.80
2018-07-27T06:07:53.174Z,9.75
2018-07-27T06:10:22.164Z,7.00
2018-07-27T06:12:51.069Z,8.33
2018-07-27T06:15:19.942Z,10.50
2018-07-27T06:17:49.219Z,8.25
2018-07-27T06:20:18.544Z,7.35
2018-07-27T06:22:48.004Z,6.87
2018-07-27T06:25:16.791Z,7.90
2018-07-27T06:27:45.794Z,7.80
2018-07-27T06:30:14.754Z,6.80
2018-07-27T06:32:43.588Z,7.20
2018-07-27T06:35:12.570Z,7.05
2018-07-27T06:37:41.504Z,7.75
2018-07-27T06:40:10.507Z,9.30
2018-07-27T06:42:39.405Z,6.87
2018-07-27T06:45:08.389Z,12.13
2018-07-27T06:47:37.237Z,9.83
2018-07-27T06:50:06.563Z,7.33
2018-07-27T06:52:35.509Z,12.50
2018-07-27T06:55:04.682Z,11.57
2018-07-27T06:57:33.563Z,7.92
2018-07-27T07:00:02.450Z,7.55
2018-07-27T07:02:31.446Z,5.30
2018-07-27T07:05:00.371Z,8.15
2018-07-27T07:07:29.327Z,7.22
2018-07-27T07:09:58.191Z,5.70
2018-07-27T07:12:27.076Z,5.83
2018-07-27T07:14:56.033Z,6.25
2018-07-27T07:17:24.837Z,6.37
2018-07-27T07:19:53.753Z,5.72
2018-07-27T07:22:22.735Z,5.58
2018-07-27T07:24:51.554Z,9.20
2018-07-27T07:27:20.776Z,6.55
2018-07-27T07:29:49.688Z,5.35
2018-07-27T07:32:18.621Z,6.35
2018-07-27T07:34:47.428Z,8.85
2018-07-27T07:37:16.333Z,5.75
2018-07-27T07:39:45.201Z,5.97
2018-07-27T07:42:14.300Z,8.58
2018-07-27T07:44:43.245Z,5.70
2018-07-27T07:47:12.119Z,6.35
2018-07-27T07:49:41.019Z,5.22
2018-07-27T07:52:09.887Z,4.80
2018-07-27T07:54:38.863Z,7.53
2018-07-27T07:57:07.633Z,5.37
2018-07-27T07:59:36.503Z,7.40
2018-07-27T08:02:05.439Z,6.42
2018-07-27T08:04:34.319Z,5.03
2018-07-27T08:07:03.389Z,5.20
2018-07-27T08:09:32.339Z,9.55
2018-07-27T08:12:01.647Z,8.85
2018-07-27T08:14:30.663Z,7.47
2018-07-27T08:16:59.527Z,8.45
2018-07-27T08:19:28.447Z,7.65
2018-07-27T08:21:57.375Z,6.85
2018-07-27T08:24:26.857Z,7.75
2018-07-27T08:26:58.129Z,9.63
2018-07-27T08:29:28.301Z,8.40
2018-07-27T08:31:57.832Z,6.80
2018-07-27T08:34:26.826Z,9.53
2018-07-27T08:36:55.797Z,9.03
2018-07-27T08:39:26.143Z,5.65
2018-07-27T08:41:55.111Z,8.53
2018-07-27T08:44:31.927Z,5.65
2018-07-27T08:47:00.804Z,5.65
2018-07-27T08:49:29.715Z,7.60
2018-07-27T08:51:58.625Z,7.17
2018-07-27T08:54:27.495Z,5.28
2018-07-27T08:56:56.231Z,9.88
2018-07-27T08:59:25.393Z,4.75
2018-07-27T09:01:54.292Z,5.47
2018-07-27T09:04:23.135Z,10.00
2018-07-27T09:06:52.240Z,5.53
2018-07-27T09:09:21.381Z,5.20
2018-07-27T09:11:50.292Z,5.20
2018-07-27T09:14:19.199Z,5.87
2018-07-27T09:16:48.022Z,7.22
2018-07-27T09:19:16.847Z,14.05
2018-07-27T09:21:45.626Z,4.37
2018-07-27T09:24:14.941Z,5.67
2018-07-27T09:26:43.712Z,6.10
2018-07-27T09:29:12.125Z,4.37
2018-07-27T09:31:40.565Z,4.90
2018-07-27T09:34:09.445Z,4.40
2018-07-27T09:36:38.721Z,6.28
2018-07-27T09:39:10.567Z,4.60
2018-07-27T09:41:39.579Z,4.20
2018-07-27T09:44:08.747Z,5.40
2018-07-27T09:46:37.589Z,4.00
2018-07-27T09:49:06.578Z,4.20
2018-07-27T09:51:35.570Z,4.92
2018-07-27T09:54:04.488Z,6.73
2018-07-27T09:56:33.563Z,4.67
2018-07-27T09:59:02.469Z,4.20
2018-07-27T10:01:31.365Z,6.12
2018-07-27T10:04:00.325Z,5.03
2018-07-27T10:06:29.169Z,4.87
2018-07-27T10:08:57.957Z,4.22
2018-07-27T10:11:26.765Z,4.80
2018-07-27T10:13:55.739Z,5.75
2018-07-27T10:16:24.534Z,4.72
2018-07-27T10:18:53.416Z,5.58
2018-07-27T10:21:22.289Z,4.72
2018-07-27T10:23:51.036Z,4.50
2018-07-27T10:26:19.886Z,5.83
2018-07-27T10:28:48.911Z,11.10
2018-07-27T10:31:18.048Z,7.65
2018-07-27T10:33:46.773Z,4.40
2018-07-27T10:36:15.602Z,4.92
2018-07-27T10:38:44.462Z,4.92
2018-07-27T10:41:13.917Z,3.90
2018-07-27T10:43:42.737Z,5.00
2018-07-27T10:46:11.585Z,3.55
2018-07-27T10:48:40.546Z,5.22
2018-07-27T10:51:09.449Z,3.80
2018-07-27T10:53:38.282Z,4.57
2018-07-27T10:56:07.149Z,4.72
2018-07-27T10:58:35.980Z,5.60
2018-07-27T11:01:04.920Z,4.15
2018-07-27T11:03:33.710Z,4.40
2018-07-27T11:06:02.929Z,5.27
2018-07-27T11:08:31.779Z,4.97
2018-07-27T11:11:00.757Z,4.47
2018-07-27T11:13:29.817Z,3.83
2018-07-27T11:15:58.849Z,5.05
2018-07-27T11:18:27.647Z,4.83
2018-07-27T11:20:56.393Z,4.42
2018-07-27T11:23:24.737Z,11.30
2018-07-27T11:25:53.571Z,6.12
2018-07-27T11:28:22.359Z,7.87
2018-07-27T11:30:51.315Z,4.92
2018-07-27T11:33:21.070Z,4.08
2018-07-27T11:35:50.117Z,4.97
2018-07-27T11:38:18.857Z,7.62
2018-07-27T11:40:47.732Z,6.97
2018-07-27T11:43:16.566Z,6.30
2018-07-27T11:45:45.371Z,4.65
2018-07-27T11:48:14.210Z,5.05
2018-07-27T11:50:43.139Z,3.65
2018-07-27T11:53:12.180Z,4.30
2018-07-27T11:55:41.001Z,6.25
2018-07-27T11:58:09.831Z,7.30
2018-07-27T12:00:38.618Z,15.63
2018-07-27T12:03:07.173Z,7.12
2018-07-27T12:05:36.263Z,9.33
2018-07-27T12:08:05.097Z,10.08
2018-07-27T12:10:34.153Z,5.55
2018-07-27T12:13:03.103Z,6.67
2018-07-27T12:15:32.199Z,7.10
2018-07-27T12:18:01.343Z,10.37
2018-07-27T12:20:30.356Z,5.73
2018-07-27T12:22:59.451Z,4.97
2018-07-27T12:25:28.256Z,4.30
2018-07-27T12:27:58.277Z,3.00
2018-07-27T12:30:27.127Z,3.33
2018-07-27T12:32:56.161Z,3.20
2018-07-27T12:35:24.945Z,5.97
2018-07-27T12:37:53.885Z,3.00
2018-07-27T12:40:22.725Z,2.87
2018-07-27T12:42:52.324Z,2.90
2018-07-27T12:45:21.256Z,2.90
2018-07-27T12:47:50.245Z,3.77
2018-07-27T12:50:19.072Z,4.97
2018-07-27T12:52:47.855Z,2.52
2018-07-27T12:55:16.619Z,3.52
2018-07-27T12:57:45.509Z,3.98
2018-07-27T13:00:14.427Z,4.12
2018-07-27T13:02:43.365Z,4.17
2018-07-27T13:05:12.381Z,5.35
2018-07-27T13:07:41.267Z,4.75
2018-07-27T13:10:10.218Z,4.78
2018-07-27T13:12:39.351Z,4.22
2018-07-27T13:15:09.467Z,4.75
2018-07-27T13:17:38.629Z,4.00
2018-07-27T13:20:08.127Z,5.60
2018-07-27T13:22:37.127Z,5.75
2018-07-27T13:25:06.947Z,6.75
2018-07-27T13:27:35.676Z,5.47
2018-07-27T13:30:05.223Z,4.85
2018-07-27T13:32:34.083Z,5.42
2018-07-27T13:35:02.989Z,4.80
2018-07-27T13:37:33.063Z,5.60
2018-07-27T13:40:03.436Z,5.67
2018-07-27T13:42:34.139Z,4.42
2018-07-27T13:45:03.163Z,4.93
2018-07-27T13:47:32.116Z,4.50
2018-07-27T13:50:01.152Z,4.62
2018-07-27T13:52:30.063Z,4.90
2018-07-27T13:54:58.893Z,5.03
2018-07-27T13:57:27.813Z,4.55
2018-07-27T13:59:56.723Z,4.47
2018-07-27T14:02:25.533Z,4.42
2018-07-27T14:04:54.372Z,4.35
2018-07-27T14:07:23.303Z,4.55
2018-07-27T14:09:52.101Z,5.80
2018-07-27T14:12:21.167Z,4.47
2018-07-27T14:14:50.001Z,5.05
2018-07-27T14:17:18.912Z,4.40
2018-07-27T14:19:47.813Z,5.53
2018-07-27T14:22:16.777Z,4.67
2018-07-27T14:24:45.885Z,5.08
2018-07-27T14:27:14.804Z,3.65
2018-07-27T14:29:43.617Z,3.42
2018-07-27T14:32:12.552Z,3.77
2018-07-27T14:34:41.595Z,3.47
2018-07-27T14:37:10.632Z,3.87
2018-07-27T14:39:39.562Z,3.50
2018-07-27T14:42:08.439Z,3.33
2018-07-27T14:44:37.371Z,3.20
2018-07-27T14:47:06.301Z,3.22
2018-07-27T14:49:35.434Z,3.55
2018-07-27T14:52:04.377Z,3.25
2018-07-27T14:54:33.247Z,4.15
2018-07-27T14:57:02.623Z,2.90
2018-07-27T14:59:31.564Z,2.95
2018-07-27T15:02:00.273Z,3.20
2018-07-27T15:04:29.235Z,3.25
2018-07-27T15:06:58.063Z,3.40
2018-07-27T15:09:26.984Z,3.12
2018-07-27T15:11:55.877Z,3.50
2018-07-27T15:14:24.673Z,4.40
2018-07-27T15:16:53.515Z,3.00
2018-07-27T15:19:22.421Z,3.65
2018-07-27T15:21:51.241Z,3.55
2018-07-27T15:24:20.159Z,3.87
2018-07-27T15:26:49.018Z,3.80
2018-07-27T15:29:17.931Z,4.00
2018-07-27T15:31:46.910Z,4.70
2018-07-27T15:34:15.856Z,3.80
2018-07-27T15:36:44.891Z,3.98
2018-07-27T15:39:14.254Z,3.67
2018-07-27T15:41:43.169Z,3.00
2018-07-27T15:44:11.998Z,3.43
2018-07-27T15:46:40.964Z,3.90
2018-07-27T15:49:13.014Z,3.65
2018-07-27T15:51:42.968Z,3.67
2018-07-27T15:54:12.029Z,3.77
2018-07-27T15:56:40.840Z,4.85
2018-07-27T15:59:09.686Z,3.62
2018-07-27T16:01:38.589Z,3.77
2018-07-27T16:04:08.415Z,4.50
2018-07-27T16:06:37.223Z,7.12
2018-07-27T16:09:08.084Z,4.15
2018-07-27T16:11:36.884Z,3.65
2018-07-27T16:14:05.947Z,6.40
2018-07-27T16:16:34.791Z,3.65
2018-07-27T16:19:03.708Z,3.45
2018-07-27T16:21:32.566Z,4.33
2018-07-27T16:24:01.735Z,5.15
2018-07-27T16:26:30.627Z,2.90
2018-07-27T16:28:59.452Z,3.00
2018-07-27T16:31:28.263Z,3.40
2018-07-27T16:33:57.162Z,3.58
2018-07-27T16:36:26.095Z,3.15
2018-07-27T16:38:54.526Z,3.83
2018-07-27T16:41:23.400Z,3.58
2018-07-27T16:43:52.481Z,3.60
2018-07-27T16:46:21.360Z,4.10
2018-07-27T16:48:49.865Z,4.03
2018-07-27T16:51:21.489Z,4.10
2018-07-27T16:53:50.691Z,3.70
2018-07-27T16:56:19.486Z,3.25
2018-07-27T16:58:48.289Z,3.47
2018-07-27T17:01:17.068Z,3.75
2018-07-27T17:03:45.937Z,3.75
2018-07-27T17:06:14.813Z,5.75
2018-07-27T17:08:43.862Z,3.85
2018-07-27T17:11:12.675Z,3.30
2018-07-27T17:13:41.490Z,2.90
2018-07-27T17:16:10.382Z,3.10
2018-07-27T17:18:39.180Z,4.00
2018-07-27T17:21:07.965Z,3.65
2018-07-27T17:23:37.036Z,3.35
2018-07-27T17:26:06.021Z,2.70
2018-07-27T17:28:34.883Z,3.08
2018-07-27T17:31:03.797Z,2.85
2018-07-27T17:33:32.577Z,2.87
2018-07-27T17:36:01.370Z,3.70
2018-07-27T17:38:30.254Z,5.78
2018-07-27T17:40:59.035Z,4.95
2018-07-27T17:43:27.825Z,3.90
2018-07-27T17:45:56.675Z,4.30
2018-07-27T17:48:25.760Z,4.03
2018-07-27T17:50:54.724Z,4.00
2018-07-27T17:53:23.614Z,4.12
2018-07-27T17:55:52.452Z,4.28
2018-07-27T17:58:21.258Z,4.40
2018-07-27T18:00:50.212Z,4.25
2018-07-27T18:03:19.298Z,5.22
2018-07-27T18:05:48.206Z,4.50
2018-07-27T18:08:17.174Z,4.62
2018-07-27T18:10:46.288Z,4.33
2018-07-27T18:13:15.940Z,4.42
2018-07-27T18:15:44.739Z,4.07
2018-07-27T18:18:15.118Z,4.08
2018-07-27T18:20:44.346Z,6.03
2018-07-27T18:23:13.220Z,3.60
2018-07-27T18:25:42.143Z,4.90
2018-07-27T18:28:10.988Z,4.65
2018-07-27T18:30:39.811Z,4.22
2018-07-27T18:33:09.221Z,4.30
2018-07-27T18:35:38.324Z,3.98
2018-07-27T18:38:08.073Z,3.60
2018-07-27T18:40:36.952Z,5.37
2018-07-27T18:43:06.413Z,4.47
2018-07-27T18:45:35.787Z,4.05
2018-07-27T18:48:04.724Z,6.72
2018-07-27T18:50:33.530Z,3.95
2018-07-27T18:53:02.332Z,4.87
2018-07-27T18:55:31.262Z,4.80
2018-07-27T18:58:00.127Z,5.22
2018-07-27T19:00:29.022Z,5.35
2018-07-27T19:02:57.972Z,4.10
2018-07-27T19:05:26.687Z,4.78
2018-07-27T19:07:55.468Z,4.10
2018-07-27T19:10:24.316Z,4.30
2018-07-27T19:12:53.158Z,3.83
2018-07-27T19:15:22.024Z,3.33
2018-07-27T19:17:50.822Z,3.83
2018-07-27T19:20:19.814Z,3.42
2018-07-27T19:22:48.615Z,3.67
2018-07-27T19:25:17.628Z,3.90
2018-07-27T19:27:46.524Z,3.67
2018-07-27T19:30:15.520Z,3.85
2018-07-27T19:32:44.532Z,3.70
2018-07-27T19:35:13.013Z,4.10
2018-07-27T19:37:42.078Z,4.17
2018-07-27T19:40:10.852Z,4.57
2018-07-27T19:42:39.646Z,4.50
2018-07-27T19:45:08.918Z,3.80
2018-07-27T19:47:38.222Z,4.77
2018-07-27T19:50:07.302Z,6.10
2018-07-27T19:52:36.252Z,4.80
2018-07-27T19:55:05.224Z,4.80
2018-07-27T19:57:34.122Z,4.27
2018-07-27T20:00:03.166Z,5.60
2018-07-27T20:02:32.155Z,4.57
2018-07-27T20:05:00.926Z,4.37
2018-07-27T20:07:29.700Z,4.33
2018-07-27T20:09:58.542Z,4.47
2018-07-27T20:12:27.348Z,4.90
2018-07-27T20:14:56.464Z,4.60
2018-07-27T20:17:25.660Z,4.70
2018-07-27T20:19:54.475Z,4.80
2018-07-27T20:22:23.146Z,5.00
2018-07-27T20:24:51.848Z,5.00
2018-07-27T20:27:20.206Z,5.20
2018-07-27T20:29:49.012Z,5.60
2018-07-27T20:32:17.371Z,6.90
2018-07-27T20:34:46.150Z,4.83
2018-07-27T20:37:14.976Z,5.50
2018-07-27T20:39:44.094Z,6.57
2018-07-27T20:42:12.867Z,8.63
2018-07-27T20:44:41.648Z,7.43
2018-07-27T20:47:10.509Z,5.93
2018-07-27T20:49:39.339Z,6.17
2018-07-27T20:52:08.306Z,7.93
2018-07-27T20:54:37.069Z,5.97
2018-07-27T20:57:06.708Z,6.97
2018-07-27T20:59:35.618Z,7.37
2018-07-27T21:02:04.439Z,5.63
2018-07-27T21:04:33.332Z,4.77
2018-07-27T21:07:02.125Z,5.53
2018-07-27T21:09:31.039Z,4.87
2018-07-27T21:11:59.816Z,8.33
2018-07-27T21:14:28.894Z,6.87
2018-07-27T21:16:57.965Z,5.77
2018-07-27T21:19:26.879Z,5.70
2018-07-27T21:21:55.811Z,6.87
2018-07-27T21:24:24.489Z,5.57
2018-07-27T21:26:53.381Z,6.03
2018-07-27T21:29:22.264Z,6.10
2018-07-27T21:31:51.379Z,4.80
2018-07-27T21:34:20.968Z,5.27
2018-07-27T21:36:49.700Z,6.27
2018-07-27T21:39:18.482Z,7.10
2018-07-27T21:41:47.348Z,5.77
2018-07-27T21:44:16.124Z,5.97
2018-07-27T21:46:44.930Z,6.83
2018-07-27T21:49:13.859Z,5.73
2018-07-27T21:51:42.729Z,5.53
2018-07-27T21:54:11.486Z,7.17
2018-07-27T21:56:40.268Z,6.30
2018-07-27T21:59:09.040Z,5.47
2018-07-27T22:01:37.876Z,6.33
2018-07-27T22:04:06.846Z,5.83
2018-07-27T22:06:35.643Z,5.45
2018-07-27T22:09:06.628Z,6.50
2018-07-27T22:11:35.481Z,6.00
2018-07-27T22:14:04.583Z,6.00
2018-07-27T22:16:33.646Z,6.80
2018-07-27T22:19:02.408Z,5.80
2018-07-27T22:21:31.323Z,6.97
2018-07-27T22:24:00.342Z,5.57
2018-07-27T22:26:29.098Z,5.70
2018-07-27T22:28:57.916Z,5.37
2018-07-27T22:31:26.717Z,6.87
2018-07-27T22:33:55.580Z,7.70
2018-07-27T22:36:24.911Z,5.90
2018-07-27T22:38:53.792Z,6.23
2018-07-27T22:41:22.776Z,8.70
2018-07-27T22:43:51.706Z,6.30
2018-07-27T22:46:20.458Z,6.20
2018-07-27T22:48:49.580Z,7.20
2018-07-27T22:51:18.529Z,7.67
2018-07-27T22:53:47.313Z,6.60
2018-07-27T22:56:16.105Z,6.00
2018-07-27T22:58:44.886Z,7.73
2018-07-27T23:01:13.658Z,7.77
2018-07-27T23:03:42.429Z,5.80
2018-07-27T23:06:11.872Z,6.23
2018-07-27T23:08:40.681Z,5.87
2018-07-27T23:11:09.488Z,5.93
2018-07-27T23:13:38.727Z,5.80
2018-07-27T23:16:13.451Z,7.80
2018-07-27T23:18:42.446Z,7.87
2018-07-27T23:21:11.279Z,5.87
2018-07-27T23:23:39.980Z,7.13
2018-07-27T23:26:09.000Z,8.00
2018-07-27T23:28:37.815Z,6.10
2018-07-27T23:31:06.713Z,6.77
2018-07-27T23:33:35.695Z,6.30
2018-07-27T23:36:04.549Z,8.37
2018-07-27T23:38:33.355Z,6.50
2018-07-27T23:41:02.305Z,5.93
2018-07-27T23:43:31.090Z,6.07
2018-07-27T23:45:59.852Z,6.23
2018-07-27T23:48:28.601Z,7.07
2018-07-27T23:50:57.551Z,6.37
2018-07-27T23:53:26.365Z,6.63
2018-07-27T23:55:55.224Z,6.73
2018-07-27T23:58:24.103Z,8.40
